createdAt,value
2018-09-08T00:00:46.789Z,99.90
2018-09-08T00:03:21.127Z,99.90
2018-09-08T00:05:55.383Z,99.90
2018-09-08T00:08:29.717Z,99.90
2018-09-08T00:11:03.967Z,99.90
2018-09-08T00:13:38.226Z,99.90
2018-09-08T00:16:18.126Z,99.90
2018-09-08T00:18:57.586Z,99.90
2018-09-08T00:21:37.308Z,99.90
2018-09-08T00:24:16.842Z,99.90
2018-09-08T00:26:50.334Z,99.90
2018-09-08T00:29:30.461Z,99.90
2018-09-08T00:32:08.039Z,99.90
2018-09-08T00:34:42.660Z,99.90
2018-09-08T00:37:17.088Z,99.90
2018-09-08T00:39:51.833Z,99.90
2018-09-08T00:42:26.204Z,99.90
2018-09-08T00:45:00.654Z,99.90
2018-09-08T00:47:35.106Z,99.90
2018-09-08T00:50:09.433Z,99.90
2018-09-08T00:52:43.767Z,99.90
2018-09-08T00:55:18.022Z,99.90
2018-09-08T00:57:52.275Z,99.90
2018-09-08T01:00:26.544Z,99.90
2018-09-08T01:03:00.825Z,99.90
2018-09-08T01:05:35.218Z,99.90
2018-09-08T01:08:09.549Z,99.90
2018-09-08T01:10:44.007Z,99.90
2018-09-08T01:13:18.350Z,99.90
2018-09-08T01:15:52.611Z,99.90
2018-09-08T01:18:26.839Z,99.90
2018-09-08T01:21:01.239Z,99.90
2018-09-08T01:23:35.667Z,99.90
2018-09-08T01:26:10.002Z,99.90
2018-09-08T01:28:45.383Z,99.90
2018-09-08T01:31:20.364Z,99.90
2018-09-08T01:33:54.586Z,99.90
2018-09-08T01:36:28.848Z,99.90
2018-09-08T01:39:03.178Z,99.90
2018-09-08T01:41:37.677Z,99.90
2018-09-08T01:44:12.079Z,99.90
2018-09-08T01:46:46.564Z,99.90
2018-09-08T01:49:20.949Z,99.90
2018-09-08T01:51:55.283Z,99.90
2018-09-08T01:54:29.558Z,99.90
2018-09-08T01:57:03.954Z,99.90
2018-09-08T01:59:38.386Z,99.90
2018-09-08T02:02:12.843Z,99.90
2018-09-08T02:04:47.117Z,99.90
2018-09-08T02:07:21.439Z,99.90
2018-09-08T02:09:55.699Z,99.90
2018-09-08T02:12:29.866Z,99.90
2018-09-08T02:15:04.959Z,99.90
2018-09-08T02:17:39.151Z,99.90
2018-09-08T02:20:14.167Z,99.90
2018-09-08T02:22:49.888Z,99.90
2018-09-08T02:25:24.400Z,99.90
2018-09-08T02:27:58.621Z,99.90
2018-09-08T02:30:33.088Z,99.90
2018-09-08T02:33:08.573Z,99.90
2018-09-08T02:35:42.839Z,99.90
2018-09-08T02:38:17.444Z,99.90
2018-09-08T02:40:51.849Z,99.90
2018-09-08T02:43:26.048Z,99.90
2018-09-08T02:46:00.376Z,99.90
2018-09-08T02:48:34.827Z,99.90
2018-09-08T02:51:08.090Z,99.90
2018-09-08T02:53:41.443Z,99.90
2018-09-08T02:56:14.813Z,99.90
2018-09-08T02:58:55.284Z,99.90
2018-09-08T03:01:28.537Z,99.90
2018-09-08T03:04:01.918Z,99.90
2018-09-08T03:06:35.387Z,99.90
2018-09-08T03:09:08.766Z,99.90
2018-09-08T03:11:42.459Z,99.90
2018-09-08T03:14:15.913Z,99.90
2018-09-08T03:16:49.364Z,99.90
2018-09-08T03:19:22.703Z,99.90
2018-09-08T03:21:55.935Z,99.90
2018-09-08T03:24:29.166Z,99.90
2018-09-08T03:27:02.557Z,99.90
2018-09-08T03:29:35.982Z,99.90
2018-09-08T03:32:09.376Z,99.90
2018-09-08T03:34:42.829Z,99.90
2018-09-08T03:37:16.272Z,99.90
2018-09-08T03:39:49.527Z,99.90
2018-09-08T03:42:22.966Z,99.90
2018-09-08T03:44:56.265Z,99.90
2018-09-08T03:47:29.631Z,99.90
2018-09-08T03:50:02.987Z,99.90
2018-09-08T03:52:36.251Z,99.90
2018-09-08T03:55:09.623Z,99.90
2018-09-08T03:57:42.988Z,99.90
2018-09-08T04:00:16.354Z,99.90
2018-09-08T04:02:52.190Z,99.90
2018-09-08T04:05:26.649Z,99.90
2018-09-08T04:08:02.127Z,99.90
2018-09-08T04:10:36.592Z,99.90
2018-09-08T04:13:11.543Z,99.90
2018-09-08T04:15:46.000Z,99.90
2018-09-08T04:18:20.309Z,99.90
2018-09-08T04:20:54.632Z,99.90
2018-09-08T04:23:29.007Z,99.90
2018-09-08T04:26:03.468Z,99.90
2018-09-08T04:28:37.914Z,99.90
2018-09-08T04:31:12.252Z,99.90
2018-09-08T04:33:46.616Z,99.90
2018-09-08T04:36:20.965Z,99.90
2018-09-08T04:38:55.195Z,99.90
2018-09-08T04:41:30.044Z,99.90
2018-09-08T04:44:04.391Z,99.90
2018-09-08T04:46:38.625Z,99.90
2018-09-08T04:49:13.021Z,99.90
2018-09-08T04:51:47.458Z,99.90
2018-09-08T04:54:21.813Z,99.90
2018-09-08T04:56:56.240Z,99.90
2018-09-08T04:59:30.596Z,99.90
2018-09-08T05:02:05.006Z,99.90
2018-09-08T05:04:39.388Z,99.90
2018-09-08T05:07:13.582Z,99.90
2018-09-08T05:09:47.846Z,99.90
2018-09-08T05:12:22.143Z,99.90
2018-09-08T05:14:56.704Z,99.90
2018-09-08T05:17:31.060Z,99.90
2018-09-08T05:20:05.799Z,99.90
2018-09-08T05:22:40.137Z,99.90
2018-09-08T05:25:14.917Z,99.90
2018-09-08T05:27:49.239Z,99.90
2018-09-08T05:30:23.498Z,99.90
2018-09-08T05:32:57.752Z,99.90
2018-09-08T05:35:32.026Z,99.90
2018-09-08T05:38:06.456Z,99.90
2018-09-08T05:40:40.680Z,99.90
2018-09-08T05:43:15.058Z,99.90
2018-09-08T05:45:49.396Z,99.90
2018-09-08T05:48:23.766Z,99.90
2018-09-08T05:50:58.117Z,99.90
2018-09-08T05:53:32.473Z,99.90
2018-09-08T05:56:07.790Z,99.90
2018-09-08T05:58:42.021Z,99.90
2018-09-08T06:01:16.277Z,99.90
2018-09-08T06:03:51.328Z,99.90
2018-09-08T06:06:25.627Z,99.90
2018-09-08T06:08:59.996Z,99.90
2018-09-08T06:11:34.368Z,99.90
2018-09-08T06:14:08.581Z,99.90
2018-09-08T06:16:43.833Z,99.90
2018-09-08T06:19:18.331Z,99.90
2018-09-08T06:21:52.707Z,99.90
2018-09-08T06:24:27.153Z,99.90
2018-09-08T06:27:01.363Z,99.90
2018-09-08T06:29:35.747Z,99.90
2018-09-08T06:32:09.971Z,99.90
2018-09-08T06:34:44.407Z,99.90
2018-09-08T06:37:18.854Z,99.90
2018-09-08T06:39:53.199Z,99.90
2018-09-08T06:42:27.565Z,99.90
2018-09-08T06:45:01.947Z,99.90
2018-09-08T06:47:36.154Z,99.90
2018-09-08T06:50:10.687Z,99.90
2018-09-08T06:52:45.046Z,99.90
2018-09-08T06:55:19.416Z,99.90
2018-09-08T06:57:53.784Z,99.90
2018-09-08T07:00:28.145Z,99.90
2018-09-08T07:03:02.480Z,99.90
2018-09-08T07:05:36.860Z,99.90
2018-09-08T07:08:11.076Z,99.90
2018-09-08T07:10:45.421Z,99.90
2018-09-08T07:13:19.803Z,99.90
2018-09-08T07:15:54.112Z,99.90
2018-09-08T07:18:28.469Z,99.90
2018-09-08T07:21:02.774Z,99.90
2018-09-08T07:23:37.273Z,99.90
2018-09-08T07:26:12.193Z,99.90
2018-09-08T07:28:46.578Z,99.90
2018-09-08T07:31:21.841Z,99.90
2018-09-08T07:33:57.354Z,99.90
2018-09-08T07:36:31.633Z,99.90
2018-09-08T07:39:07.961Z,99.90
2018-09-08T07:41:42.290Z,99.90
2018-09-08T07:44:16.648Z,99.90
2018-09-08T07:46:50.911Z,99.90
2018-09-08T07:49:25.274Z,99.90
2018-09-08T07:51:59.670Z,99.90
2018-09-08T07:54:34.025Z,99.90
2018-09-08T07:57:08.504Z,99.90
2018-09-08T07:59:42.911Z,99.90
2018-09-08T08:02:17.136Z,99.90
2018-09-08T08:04:51.547Z,99.90
2018-09-08T08:07:25.903Z,99.90
2018-09-08T08:12:39.380Z,99.90
2018-09-08T08:15:13.654Z,99.90
2018-09-08T08:17:47.866Z,99.90
2018-09-08T08:20:22.305Z,99.90
2018-09-08T08:22:58.389Z,99.90
2018-09-08T08:25:32.619Z,99.90
2018-09-08T08:28:07.062Z,99.90
2018-09-08T08:30:41.413Z,99.90
2018-09-08T08:33:15.881Z,99.90
2018-09-08T08:35:50.345Z,99.90
2018-09-08T08:38:24.827Z,99.90
2018-09-08T08:40:59.517Z,99.90
2018-09-08T08:43:33.972Z,99.90
2018-09-08T08:46:08.242Z,99.90
2018-09-08T08:48:42.509Z,99.90
2018-09-08T08:51:28.238Z,99.90
2018-09-08T08:54:12.132Z,99.90
2018-09-08T08:56:46.462Z,99.90
2018-09-08T08:59:20.949Z,99.90
2018-09-08T09:01:55.193Z,99.90
2018-09-08T09:04:29.927Z,99.90
2018-09-08T09:07:05.012Z,99.90
2018-09-08T09:09:41.230Z,99.90
2018-09-08T09:12:15.475Z,99.90
2018-09-08T09:14:49.689Z,99.90
2018-09-08T09:17:24.097Z,99.90
2018-09-08T09:20:09.906Z,99.90
2018-09-08T09:22:55.575Z,99.90
2018-09-08T09:25:29.929Z,99.90
2018-09-08T09:28:04.773Z,99.90
2018-09-08T09:30:39.210Z,99.90
2018-09-08T09:33:13.558Z,99.90
2018-09-08T09:35:47.867Z,99.90
2018-09-08T09:38:22.164Z,99.90
2018-09-08T09:40:57.323Z,99.90
2018-09-08T09:43:32.190Z,99.90
2018-09-08T09:46:07.142Z,99.90
2018-09-08T09:48:41.399Z,99.90
2018-09-08T09:51:15.969Z,99.90
2018-09-08T09:53:50.498Z,99.90
2018-09-08T09:56:25.561Z,99.90
2018-09-08T09:59:01.387Z,99.90
2018-09-08T10:01:41.220Z,99.90
2018-09-08T10:04:15.722Z,99.90
2018-09-08T10:06:50.026Z,99.90
2018-09-08T10:09:24.277Z,99.90
2018-09-08T10:11:58.552Z,99.90
2018-09-08T10:14:32.839Z,99.90
2018-09-08T10:17:07.152Z,99.90
2018-09-08T10:19:41.514Z,99.90
2018-09-08T10:22:15.743Z,99.90
2018-09-08T10:24:50.121Z,99.90
2018-09-08T10:27:24.434Z,99.90
2018-09-08T10:29:58.969Z,99.90
2018-09-08T10:32:33.024Z,99.90
2018-09-08T10:35:08.983Z,99.90
2018-09-08T10:37:43.387Z,99.90
2018-09-08T10:40:17.713Z,99.90
2018-09-08T10:42:51.961Z,99.90
2018-09-08T10:45:26.395Z,99.90
2018-09-08T10:48:01.058Z,99.90
2018-09-08T10:50:35.450Z,99.90
2018-09-08T10:53:09.796Z,99.90
2018-09-08T10:55:44.187Z,99.90
2018-09-08T10:58:18.549Z,99.90
2018-09-08T11:00:52.944Z,99.90
2018-09-08T11:03:27.182Z,99.90
2018-09-08T11:06:01.466Z,99.90
2018-09-08T11:08:35.869Z,99.90
2018-09-08T11:11:10.137Z,99.90
2018-09-08T11:13:44.484Z,99.90
2018-09-08T11:16:18.814Z,99.90
2018-09-08T11:18:53.157Z,99.90
2018-09-08T11:21:27.498Z,99.90
2018-09-08T11:24:02.423Z,99.90
2018-09-08T11:26:36.845Z,99.90
2018-09-08T11:29:11.111Z,99.90
2018-09-08T11:31:45.575Z,99.90
2018-09-08T11:34:19.975Z,99.90
2018-09-08T11:36:54.285Z,99.90
2018-09-08T11:39:28.583Z,99.90
2018-09-08T11:42:02.854Z,99.90
2018-09-08T11:44:37.172Z,99.90
2018-09-08T11:47:11.405Z,99.90
2018-09-08T11:49:45.892Z,99.90
2018-09-08T11:52:20.252Z,99.90
2018-09-08T11:54:54.499Z,99.90
2018-09-08T11:57:28.891Z,99.90
2018-09-08T12:00:03.146Z,99.90
2018-09-08T12:02:37.453Z,99.90
2018-09-08T12:05:11.675Z,99.90
2018-09-08T12:07:45.911Z,99.90
2018-09-08T12:10:20.358Z,99.90
2018-09-08T12:12:54.809Z,99.90
2018-09-08T12:15:29.188Z,99.90
2018-09-08T12:18:03.589Z,99.90
2018-09-08T12:20:38.035Z,99.90
2018-09-08T12:23:12.311Z,99.90
2018-09-08T12:25:46.652Z,99.90
2018-09-08T12:28:20.938Z,99.90
2018-09-08T12:30:55.259Z,99.90
2018-09-08T12:33:29.556Z,99.90
2018-09-08T12:36:04.155Z,99.90
2018-09-08T12:38:38.608Z,99.90
2018-09-08T12:41:12.905Z,99.90
2018-09-08T12:43:48.171Z,99.60
2018-09-08T12:46:22.452Z,99.90
2018-09-08T12:48:56.726Z,99.90
2018-09-08T12:51:31.092Z,99.90
2018-09-08T12:54:05.480Z,99.90
2018-09-08T12:56:39.852Z,99.70
2018-09-08T12:59:14.368Z,99.90
2018-09-08T13:01:48.710Z,98.10
2018-09-08T13:04:22.978Z,98.10
2018-09-08T13:06:57.345Z,99.90
2018-09-08T13:09:31.591Z,99.30
2018-09-08T13:12:06.578Z,96.80
2018-09-08T13:14:40.815Z,97.60
2018-09-08T13:17:15.168Z,97.90
2018-09-08T13:19:49.798Z,98.50
2018-09-08T13:22:24.155Z,95.20
2018-09-08T13:24:58.475Z,93.20
2018-09-08T13:27:32.720Z,95.30
2018-09-08T13:30:07.349Z,95.10
2018-09-08T13:32:41.580Z,93.70
2018-09-08T13:35:15.827Z,94.20
2018-09-08T13:37:50.100Z,95.30
2018-09-08T13:40:24.362Z,93.70
2018-09-08T13:42:58.724Z,94.20
2018-09-08T13:45:33.056Z,93.80
2018-09-08T13:48:07.530Z,96.90
2018-09-08T13:50:41.804Z,94.60
2018-09-08T13:53:16.312Z,93.90
2018-09-08T13:55:50.894Z,94.90
2018-09-08T13:58:26.112Z,93.90
2018-09-08T14:01:00.539Z,91.70
2018-09-08T14:03:34.875Z,91.60
2018-09-08T14:06:09.215Z,92.70
2018-09-08T14:08:43.637Z,88.40
2018-09-08T14:11:18.016Z,90.70
2018-09-08T14:13:52.384Z,90.20
2018-09-08T14:16:26.662Z,90.20
2018-09-08T14:19:01.061Z,91.20
2018-09-08T14:21:35.473Z,89.90
2018-09-08T14:24:11.021Z,90.40
2018-09-08T14:26:48.379Z,88.10
2018-09-08T14:29:22.791Z,88.90
2018-09-08T14:31:57.355Z,89.60
2018-09-08T14:34:31.696Z,90.00
2018-09-08T14:37:06.193Z,90.40
2018-09-08T14:39:40.580Z,90.60
2018-09-08T14:42:14.844Z,89.00
2018-09-08T14:44:49.206Z,89.90
2018-09-08T14:47:23.528Z,89.90
2018-09-08T14:49:57.848Z,90.50
2018-09-08T14:52:34.932Z,90.90
2018-09-08T14:55:09.254Z,91.10
2018-09-08T14:57:43.752Z,91.20
2018-09-08T15:00:18.396Z,90.20
2018-09-08T15:02:53.204Z,89.00
2018-09-08T15:05:27.542Z,88.70
2018-09-08T15:08:01.797Z,89.30
2018-09-08T15:10:36.241Z,89.50
2018-09-08T15:13:10.636Z,88.90
2018-09-08T15:15:45.141Z,91.90
2018-09-08T15:18:19.469Z,88.40
2018-09-08T15:20:53.832Z,87.80
2018-09-08T15:23:28.149Z,87.30
2018-09-08T15:26:02.773Z,90.10
2018-09-08T15:28:37.445Z,89.10
2018-09-08T15:31:11.713Z,88.30
2018-09-08T15:33:46.139Z,87.80
2018-09-08T15:36:20.496Z,87.90
2018-09-08T15:38:54.762Z,85.70
2018-09-08T15:41:29.235Z,87.90
2018-09-08T15:44:03.499Z,85.70
2018-09-08T15:46:37.847Z,84.30
2018-09-08T15:49:12.134Z,87.70
2018-09-08T15:51:46.503Z,85.80
2018-09-08T15:54:20.878Z,88.60
2018-09-08T15:56:55.269Z,82.70
2018-09-08T15:59:29.728Z,87.60
2018-09-08T16:02:04.105Z,87.80
2018-09-08T16:04:38.390Z,84.30
2018-09-08T16:07:12.670Z,88.30
2018-09-08T16:09:47.112Z,89.00
2018-09-08T16:12:21.590Z,89.30
2018-09-08T16:14:55.838Z,87.50
2018-09-08T16:17:30.191Z,88.30
2018-09-08T16:20:04.684Z,88.90
2018-09-08T16:22:39.071Z,90.50
2018-09-08T16:25:13.425Z,91.40
2018-09-08T16:27:47.824Z,91.00
2018-09-08T16:30:22.123Z,94.90
2018-09-08T16:32:56.946Z,92.80
2018-09-08T16:35:31.412Z,92.90
2018-09-08T16:38:05.863Z,93.60
2018-09-08T16:40:40.225Z,96.20
2018-09-08T16:43:14.569Z,96.00
2018-09-08T16:45:48.942Z,96.70
2018-09-08T16:48:23.421Z,96.00
2018-09-08T16:50:57.914Z,96.80
2018-09-08T16:53:32.309Z,97.80
2018-09-08T16:56:07.137Z,99.90
2018-09-08T16:58:41.487Z,99.90
2018-09-08T17:01:15.771Z,99.90
2018-09-08T17:03:50.130Z,99.90
2018-09-08T17:06:24.506Z,99.90
2018-09-08T17:08:58.988Z,99.90
2018-09-08T17:11:33.472Z,99.90
2018-09-08T17:14:07.878Z,99.90
2018-09-08T17:16:42.159Z,99.90
2018-09-08T17:19:16.610Z,99.90
2018-09-08T17:21:51.037Z,99.90
2018-09-08T17:24:25.639Z,99.90
2018-09-08T17:26:59.914Z,99.90
2018-09-08T17:29:34.372Z,99.90
2018-09-08T17:32:08.756Z,99.90
2018-09-08T17:34:43.294Z,99.90
2018-09-08T17:37:17.689Z,99.90
2018-09-08T17:39:53.115Z,99.90
2018-09-08T17:42:27.477Z,99.90
2018-09-08T17:45:01.869Z,99.90
2018-09-08T17:47:36.289Z,99.90
2018-09-08T17:50:10.577Z,99.90
2018-09-08T17:52:44.858Z,99.90
2018-09-08T17:55:19.180Z,99.90
2018-09-08T17:57:54.633Z,99.90
2018-09-08T18:00:28.974Z,99.90
2018-09-08T18:03:03.264Z,99.90
2018-09-08T18:05:37.698Z,99.90
2018-09-08T18:08:14.696Z,99.90
2018-09-08T18:10:48.975Z,99.90
2018-09-08T18:13:24.222Z,99.90
2018-09-08T18:15:58.707Z,99.90
2018-09-08T18:18:32.982Z,99.90
2018-09-08T18:21:07.428Z,99.90
2018-09-08T18:23:41.982Z,99.90
2018-09-08T18:26:16.343Z,99.90
2018-09-08T18:28:50.747Z,99.90
2018-09-08T18:31:25.137Z,99.90
2018-09-08T18:33:59.510Z,99.90
2018-09-08T18:36:33.831Z,99.90
2018-09-08T18:39:08.121Z,99.90
2018-09-08T18:41:47.154Z,99.90
2018-09-08T18:44:22.807Z,99.90
2018-09-08T18:46:59.510Z,99.90
2018-09-08T18:49:37.304Z,99.90
2018-09-08T18:52:13.642Z,99.90
2018-09-08T18:54:49.955Z,99.90
2018-09-08T18:57:25.505Z,99.90
2018-09-08T18:59:59.974Z,99.90
2018-09-08T19:02:34.851Z,99.90
2018-09-08T19:05:09.603Z,99.90
2018-09-08T19:07:44.356Z,99.90
2018-09-08T19:10:19.283Z,99.90
2018-09-08T19:12:54.082Z,99.90
2018-09-08T19:15:29.012Z,99.90
2018-09-08T19:18:04.256Z,99.90
2018-09-08T19:20:40.104Z,99.90
2018-09-08T19:23:14.929Z,99.90
2018-09-08T19:25:50.009Z,99.90
2018-09-08T19:28:25.227Z,99.90
2018-09-08T19:30:59.797Z,99.90
2018-09-08T19:33:35.072Z,99.90
2018-09-08T19:36:09.860Z,99.90
2018-09-08T19:38:44.446Z,99.90
2018-09-08T19:41:20.658Z,99.90
2018-09-08T19:43:55.935Z,99.90
2018-09-08T19:48:37.999Z,99.90
2018-09-08T19:51:12.770Z,99.90
2018-09-08T19:53:53.070Z,99.90
2018-09-08T19:56:33.601Z,99.90
2018-09-08T19:59:08.989Z,99.90
2018-09-08T20:01:44.120Z,99.90
2018-09-08T20:04:19.480Z,99.90
2018-09-08T20:06:54.727Z,99.90
2018-09-08T20:09:30.650Z,99.90
2018-09-08T20:12:06.717Z,99.90
2018-09-08T20:14:42.071Z,99.90
2018-09-08T20:17:17.428Z,99.90
2018-09-08T20:19:53.264Z,99.90
2018-09-08T20:22:30.050Z,99.90
2018-09-08T20:25:07.565Z,99.90
2018-09-08T20:27:43.916Z,99.90
2018-09-08T20:30:20.401Z,99.90
2018-09-08T20:32:56.749Z,99.90
2018-09-08T20:35:32.274Z,99.90
2018-09-08T20:38:08.760Z,99.90
2018-09-08T20:40:44.730Z,99.90
2018-09-08T20:43:21.468Z,99.90
2018-09-08T20:45:57.245Z,99.90
2018-09-08T20:48:33.479Z,99.90
2018-09-08T20:51:11.166Z,99.90
2018-09-08T20:53:47.933Z,99.90
2018-09-08T20:56:23.703Z,99.90
2018-09-08T20:58:59.319Z,99.90
2018-09-08T21:01:37.902Z,99.90
2018-09-08T21:04:15.518Z,99.90
2018-09-08T21:06:54.053Z,99.90
2018-09-08T21:09:31.782Z,99.90
2018-09-08T21:12:08.764Z,99.90
2018-09-08T21:14:45.255Z,99.90
2018-09-08T21:17:21.497Z,99.90
2018-09-08T21:19:57.964Z,99.90
2018-09-08T21:22:37.045Z,99.90
2018-09-08T21:25:14.277Z,99.90
2018-09-08T21:27:58.340Z,99.90
2018-09-08T21:30:34.259Z,99.90
2018-09-08T21:33:10.543Z,99.90
2018-09-08T21:35:46.204Z,99.90
2018-09-08T21:38:26.537Z,99.90
2018-09-08T21:41:03.127Z,99.90
2018-09-08T21:43:40.085Z,99.90
2018-09-08T21:46:16.506Z,99.90
2018-09-08T21:48:55.380Z,99.90
2018-09-08T21:51:31.130Z,99.90
2018-09-08T21:54:07.911Z,99.90
2018-09-08T21:56:43.346Z,99.90
2018-09-08T21:59:19.301Z,99.90
2018-09-08T22:01:56.270Z,99.90
2018-09-08T22:04:34.432Z,99.90
2018-09-08T22:07:10.762Z,99.90
2018-09-08T22:09:51.901Z,99.90
2018-09-08T22:12:30.759Z,99.90
2018-09-08T22:15:06.416Z,99.90
2018-09-08T22:17:42.887Z,99.90
2018-09-08T22:20:19.397Z,99.90
2018-09-08T22:22:56.744Z,99.90
2018-09-08T22:25:32.690Z,99.90
2018-09-08T22:28:11.413Z,99.90
2018-09-08T22:30:54.735Z,99.90
2018-09-08T22:33:32.245Z,99.90
2018-09-08T22:36:10.422Z,99.90
2018-09-08T22:38:45.877Z,99.90
2018-09-08T22:41:22.405Z,99.90
2018-09-08T22:46:41.386Z,99.90
2018-09-08T22:49:17.282Z,99.90
2018-09-08T22:51:55.470Z,99.90
2018-09-08T22:54:34.003Z,99.90
2018-09-08T22:57:10.775Z,99.90
2018-09-08T22:59:47.811Z,99.90
2018-09-08T23:02:24.324Z,99.90
2018-09-08T23:05:00.174Z,99.90
2018-09-08T23:07:36.808Z,99.90
2018-09-08T23:10:11.945Z,99.90
2018-09-08T23:12:47.182Z,99.90
2018-09-08T23:15:22.956Z,99.90
2018-09-08T23:17:58.917Z,99.90
2018-09-08T23:20:34.481Z,99.90
2018-09-08T23:23:12.972Z,99.90
2018-09-08T23:25:50.652Z,99.90
2018-09-08T23:28:29.187Z,99.90
2018-09-08T23:31:08.741Z,99.90
2018-09-08T23:33:46.225Z,99.90
2018-09-08T23:36:24.743Z,99.90
2018-09-08T23:39:00.993Z,99.90
2018-09-08T23:41:40.333Z,99.90
2018-09-08T23:44:16.893Z,99.90
2018-09-08T23:46:54.394Z,99.90
2018-09-08T23:49:29.888Z,99.90
2018-09-08T23:52:07.944Z,99.90
2018-09-08T23:54:44.348Z,99.90
2018-09-08T23:57:20.777Z,99.90
2018-09-08T23:59:56.829Z,99.90
